RYR1HY LIRF-LIML
Flight info
| Callsign | RYR1HY |
|---|---|
| Flight time | 0h 44m |
| Altitude | 34000 |
| Route | GILIO DCT KARDU DCT EMBOS DCT GIPIX DCT KALMO |
| Aircraft | B738/M-SDE2E3FGHIRWXY/LB1 |
Departure
| Time | 2026-05-04 19:10 |
|---|---|
| Airport | Rome–Fiumicino Leonardo da Vinci International Airport (LIRF) |
Arrival
| Time | 2026-05-04 19:54 |
|---|---|
| Airport | Milano Linate Airport (LIML) |
| Time | Latitude | Longitude | Altitude | Speed | Heading |
|---|---|---|---|---|---|
| 2026-05-04 18:37 | 41.79507 | 12.25873 | 14 ft | 0 kts | 295° |
| 2026-05-04 18:53 | 41.79502 | 12.25888 | 14 ft | 4 kts | 293° |
| 2026-05-04 18:54 | 41.79493 | 12.25915 | 15 ft | 4 kts | 265° |
| 2026-05-04 18:54 | 41.79505 | 12.25942 | 14 ft | 4 kts | 226° |
| 2026-05-04 18:54 | 41.79522 | 12.25963 | 13 ft | 4 kts | 208° |
| 2026-05-04 18:54 | 41.79547 | 12.25977 | 15 ft | 4 kts | 202° |
| 2026-05-04 18:55 | 41.79571 | 12.25992 | 16 ft | 4 kts | 205° |
| 2026-05-04 18:55 | 41.79620 | 12.26023 | 16 ft | 4 kts | 205° |
| 2026-05-04 18:55 | 41.79645 | 12.26038 | 16 ft | 4 kts | 205° |
| 2026-05-04 18:56 | 41.79669 | 12.26053 | 15 ft | 4 kts | 205° |
| 2026-05-04 18:56 | 41.79694 | 12.26068 | 14 ft | 4 kts | 205° |
| 2026-05-04 18:56 | 41.79718 | 12.26084 | 14 ft | 4 kts | 205° |
| 2026-05-04 18:56 | 41.79743 | 12.26099 | 15 ft | 4 kts | 207° |
| 2026-05-04 18:57 | 41.79758 | 12.26110 | 16 ft | 0 kts | 206° |
| 2026-05-04 19:02 | 41.79756 | 12.26103 | 13 ft | 2 kts | 240° |
| 2026-05-04 19:03 | 41.79756 | 12.26071 | 13 ft | 5 kts | 304° |
| 2026-05-04 19:03 | 41.79776 | 12.26033 | 13 ft | 5 kts | 304° |
| 2026-05-04 19:03 | 41.79792 | 12.25993 | 14 ft | 5 kts | 294° |
| 2026-05-04 19:03 | 41.79805 | 12.25954 | 14 ft | 5 kts | 295° |
| 2026-05-04 19:04 | 41.79818 | 12.25916 | 15 ft | 4 kts | 295° |
| 2026-05-04 19:04 | 41.79831 | 12.25878 | 15 ft | 4 kts | 295° |
| 2026-05-04 19:04 | 41.79844 | 12.25842 | 15 ft | 4 kts | 295° |
| 2026-05-04 19:04 | 41.79866 | 12.25816 | 13 ft | 5 kts | 344° |
| 2026-05-04 19:05 | 41.79906 | 12.25839 | 15 ft | 9 kts | 27° |
| 2026-05-04 19:05 | 41.79981 | 12.25890 | 13 ft | 15 kts | 25° |
| 2026-05-04 19:05 | 41.80076 | 12.25948 | 15 ft | 15 kts | 24° |
| 2026-05-04 19:05 | 41.80168 | 12.26004 | 14 ft | 14 kts | 25° |
| 2026-05-04 19:06 | 41.80255 | 12.26058 | 13 ft | 14 kts | 25° |
| 2026-05-04 19:06 | 41.80339 | 12.26110 | 13 ft | 13 kts | 24° |
| 2026-05-04 19:06 | 41.80420 | 12.26160 | 15 ft | 13 kts | 25° |
| 2026-05-04 19:06 | 41.80504 | 12.26184 | 18 ft | 12 kts | 22° |
| 2026-05-04 19:07 | 41.80541 | 12.26285 | 15 ft | 12 kts | 71° |
| 2026-05-04 19:07 | 41.80570 | 12.26391 | 15 ft | 13 kts | 69° |
| 2026-05-04 19:07 | 41.80609 | 12.26532 | 17 ft | 18 kts | 70° |
| 2026-05-04 19:07 | 41.80652 | 12.26690 | 14 ft | 18 kts | 70° |
| 2026-05-04 19:08 | 41.80694 | 12.26843 | 15 ft | 17 kts | 70° |
| 2026-05-04 19:08 | 41.80710 | 12.26903 | 14 ft | 7 kts | 70° |
| 2026-05-04 19:08 | 41.80740 | 12.27008 | 12 ft | 14 kts | 63° |
| 2026-05-04 19:08 | 41.80823 | 12.27033 | 14 ft | 13 kts | 340° |
| 2026-05-04 19:09 | 41.80907 | 12.26993 | 12 ft | 13 kts | 340° |
| 2026-05-04 19:09 | 41.80953 | 12.26910 | 12 ft | 13 kts | 259° |
| 2026-05-04 19:09 | 41.80842 | 12.26517 | 16 ft | 92 kts | 250° |
| 2026-05-04 19:09 | 41.80508 | 12.25333 | 89 ft | 171 kts | 248° |
| 2026-05-04 19:10 | 41.80107 | 12.23636 | 816 ft | 200 kts | 250° |
| 2026-05-04 19:10 | 41.79824 | 12.22484 | 1872 ft | 184 kts | 247° |
| 2026-05-04 19:10 | 41.79386 | 12.20165 | 3049 ft | 216 kts | 271° |
| 2026-05-04 19:10 | 41.79756 | 12.18085 | 3333 ft | 242 kts | 283° |
| 2026-05-04 19:11 | 41.80229 | 12.15804 | 3608 ft | 264 kts | 282° |
| 2026-05-04 19:11 | 41.80840 | 12.13443 | 4237 ft | 273 kts | 295° |
| 2026-05-04 19:11 | 41.81840 | 12.11268 | 5043 ft | 275 kts | 301° |
| 2026-05-04 19:11 | 41.82897 | 12.09121 | 5784 ft | 277 kts | 301° |
| 2026-05-04 19:12 | 41.83963 | 12.06951 | 6539 ft | 280 kts | 301° |
| 2026-05-04 19:12 | 41.86097 | 12.02540 | 8064 ft | 284 kts | 300° |
| 2026-05-04 19:12 | 41.87162 | 12.00308 | 8868 ft | 284 kts | 300° |
| 2026-05-04 19:13 | 41.88225 | 11.98064 | 9710 ft | 285 kts | 300° |
| 2026-05-04 19:13 | 41.89289 | 11.95807 | 10494 ft | 288 kts | 300° |
| 2026-05-04 19:13 | 41.90395 | 11.93449 | 10755 ft | 311 kts | 300° |
| 2026-05-04 19:13 | 41.91584 | 11.90902 | 10940 ft | 334 kts | 300° |
| 2026-05-04 19:14 | 41.92856 | 11.88176 | 11166 ft | 353 kts | 300° |
| 2026-05-04 19:14 | 41.94176 | 11.85345 | 11695 ft | 361 kts | 300° |
| 2026-05-04 19:14 | 41.95512 | 11.82481 | 12429 ft | 362 kts | 300° |
| 2026-05-04 19:14 | 41.96848 | 11.79615 | 13239 ft | 363 kts | 300° |
| 2026-05-04 19:15 | 41.98188 | 11.76734 | 14030 ft | 364 kts | 300° |
| 2026-05-04 19:15 | 41.99544 | 11.73838 | 14698 ft | 368 kts | 302° |
| 2026-05-04 19:15 | 42.01201 | 11.71181 | 15319 ft | 377 kts | 314° |
| 2026-05-04 19:15 | 42.03295 | 11.69008 | 15962 ft | 385 kts | 324° |
| 2026-05-04 19:16 | 42.05564 | 11.67043 | 16607 ft | 390 kts | 324° |
| 2026-05-04 19:16 | 42.07864 | 11.65063 | 17198 ft | 395 kts | 324° |
| 2026-05-04 19:16 | 42.10193 | 11.63054 | 17821 ft | 400 kts | 324° |
| 2026-05-04 19:16 | 42.12545 | 11.61014 | 18446 ft | 404 kts | 324° |
| 2026-05-04 19:17 | 42.14890 | 11.58970 | 18985 ft | 408 kts | 324° |
| 2026-05-04 19:17 | 42.17274 | 11.56884 | 19587 ft | 410 kts | 324° |
| 2026-05-04 19:17 | 42.19673 | 11.54777 | 20192 ft | 412 kts | 324° |
| 2026-05-04 19:17 | 42.22081 | 11.52657 | 20764 ft | 415 kts | 324° |
| 2026-05-04 19:18 | 42.24502 | 11.50522 | 21313 ft | 417 kts | 324° |
| 2026-05-04 19:18 | 42.26939 | 11.48371 | 21843 ft | 421 kts | 324° |
| 2026-05-04 19:18 | 42.29471 | 11.46338 | 22369 ft | 425 kts | 328° |
| 2026-05-04 19:18 | 42.32096 | 11.44464 | 22876 ft | 428 kts | 330° |
| 2026-05-04 19:19 | 42.34767 | 11.42646 | 23394 ft | 431 kts | 330° |
| 2026-05-04 19:19 | 42.37462 | 11.40831 | 23841 ft | 434 kts | 330° |
| 2026-05-04 19:19 | 42.40171 | 11.38994 | 24261 ft | 436 kts | 330° |
| 2026-05-04 19:19 | 42.42878 | 11.37140 | 24734 ft | 437 kts | 330° |
| 2026-05-04 19:20 | 42.45582 | 11.35268 | 25209 ft | 437 kts | 329° |
| 2026-05-04 19:20 | 42.48300 | 11.33372 | 25596 ft | 441 kts | 329° |
| 2026-05-04 19:20 | 42.51038 | 11.31450 | 25918 ft | 444 kts | 329° |
| 2026-05-04 19:20 | 42.53786 | 11.29516 | 26337 ft | 445 kts | 328° |
| 2026-05-04 19:21 | 42.56538 | 11.27576 | 26771 ft | 446 kts | 328° |
| 2026-05-04 19:21 | 42.59294 | 11.25631 | 27167 ft | 448 kts | 328° |
| 2026-05-04 19:21 | 42.62061 | 11.23676 | 27543 ft | 449 kts | 328° |
| 2026-05-04 19:21 | 42.64843 | 11.21709 | 27900 ft | 451 kts | 328° |
| 2026-05-04 19:22 | 42.67627 | 11.19738 | 28271 ft | 453 kts | 327° |
| 2026-05-04 19:22 | 42.70429 | 11.17753 | 28599 ft | 455 kts | 327° |
| 2026-05-04 19:22 | 42.73244 | 11.15756 | 28912 ft | 457 kts | 327° |
| 2026-05-04 19:22 | 42.76062 | 11.13758 | 29401 ft | 455 kts | 327° |
| 2026-05-04 19:23 | 42.78859 | 11.11774 | 30015 ft | 451 kts | 327° |
| 2026-05-04 19:23 | 42.84454 | 11.07793 | 30115 ft | 454 kts | 327° |
| 2026-05-04 19:24 | 42.89977 | 11.03858 | 30123 ft | 448 kts | 327° |
| 2026-05-04 19:24 | 42.95474 | 10.99933 | 30105 ft | 443 kts | 326° |
| 2026-05-04 19:25 | 43.00899 | 10.96050 | 30115 ft | 440 kts | 326° |
| 2026-05-04 19:25 | 43.06326 | 10.92153 | 30127 ft | 441 kts | 326° |
| 2026-05-04 19:26 | 43.11770 | 10.88237 | 30131 ft | 443 kts | 326° |
| 2026-05-04 19:26 | 43.17231 | 10.84303 | 30117 ft | 444 kts | 326° |
| 2026-05-04 19:27 | 43.22698 | 10.80359 | 30106 ft | 444 kts | 326° |
| 2026-05-04 19:27 | 43.28153 | 10.76414 | 30110 ft | 443 kts | 326° |
| 2026-05-04 19:28 | 43.33601 | 10.72467 | 30132 ft | 442 kts | 327° |
| 2026-05-04 19:28 | 43.39040 | 10.68517 | 30110 ft | 442 kts | 327° |
| 2026-05-04 19:29 | 43.44484 | 10.64556 | 30113 ft | 443 kts | 327° |
| 2026-05-04 19:29 | 43.49923 | 10.60589 | 30108 ft | 443 kts | 327° |
| 2026-05-04 19:30 | 43.55362 | 10.56616 | 30123 ft | 443 kts | 327° |
| 2026-05-04 19:30 | 43.60814 | 10.52624 | 30109 ft | 444 kts | 327° |
| 2026-05-04 19:31 | 43.66281 | 10.48613 | 30108 ft | 446 kts | 327° |
| 2026-05-04 19:31 | 43.71772 | 10.44576 | 29944 ft | 450 kts | 327° |
| 2026-05-04 19:31 | 43.74536 | 10.42539 | 29649 ft | 449 kts | 327° |
| 2026-05-04 19:32 | 43.77285 | 10.40514 | 29395 ft | 448 kts | 327° |
| 2026-05-04 19:32 | 43.80043 | 10.38480 | 29130 ft | 450 kts | 327° |
| 2026-05-04 19:32 | 43.82811 | 10.36434 | 28864 ft | 452 kts | 327° |
| 2026-05-04 19:32 | 43.85586 | 10.34381 | 28602 ft | 453 kts | 328° |
| 2026-05-04 19:33 | 43.88373 | 10.32319 | 28341 ft | 454 kts | 328° |
| 2026-05-04 19:33 | 43.91125 | 10.30279 | 28093 ft | 455 kts | 328° |
| 2026-05-04 19:33 | 43.93955 | 10.28180 | 27828 ft | 456 kts | 328° |
| 2026-05-04 19:33 | 43.96715 | 10.26132 | 27567 ft | 456 kts | 328° |
| 2026-05-04 19:34 | 43.99511 | 10.24053 | 27299 ft | 456 kts | 328° |
| 2026-05-04 19:34 | 44.02315 | 10.21966 | 26942 ft | 459 kts | 328° |
| 2026-05-04 19:34 | 44.05143 | 10.19858 | 26442 ft | 464 kts | 328° |
| 2026-05-04 19:34 | 44.07997 | 10.17727 | 25959 ft | 468 kts | 329° |
| 2026-05-04 19:35 | 44.10873 | 10.15580 | 25479 ft | 469 kts | 329° |
| 2026-05-04 19:35 | 44.13725 | 10.13450 | 24981 ft | 462 kts | 329° |
| 2026-05-04 19:35 | 44.16541 | 10.11347 | 24502 ft | 457 kts | 329° |
| 2026-05-04 19:35 | 44.19342 | 10.09250 | 24068 ft | 459 kts | 329° |
| 2026-05-04 19:36 | 44.22159 | 10.07136 | 23475 ft | 463 kts | 329° |
| 2026-05-04 19:36 | 44.24985 | 10.05014 | 22793 ft | 456 kts | 329° |
| 2026-05-04 19:36 | 44.27754 | 10.02935 | 22140 ft | 448 kts | 329° |
| 2026-05-04 19:36 | 44.30473 | 10.00891 | 21507 ft | 441 kts | 329° |
| 2026-05-04 19:37 | 44.33156 | 9.98872 | 20882 ft | 435 kts | 329° |
| 2026-05-04 19:37 | 44.35789 | 9.96888 | 20232 ft | 424 kts | 329° |
| 2026-05-04 19:37 | 44.38339 | 9.94966 | 19615 ft | 409 kts | 329° |
| 2026-05-04 19:37 | 44.40806 | 9.93104 | 19018 ft | 396 kts | 329° |
| 2026-05-04 19:38 | 44.43191 | 9.91302 | 18537 ft | 383 kts | 329° |
| 2026-05-04 19:38 | 44.45493 | 9.89560 | 18024 ft | 371 kts | 329° |
| 2026-05-04 19:38 | 44.47731 | 9.87864 | 17485 ft | 360 kts | 329° |
| 2026-05-04 19:38 | 44.49907 | 9.86214 | 16954 ft | 351 kts | 329° |
| 2026-05-04 19:39 | 44.51998 | 9.84626 | 16449 ft | 343 kts | 329° |
| 2026-05-04 19:39 | 44.54072 | 9.83051 | 15951 ft | 336 kts | 329° |
| 2026-05-04 19:39 | 44.56107 | 9.81502 | 15454 ft | 330 kts | 328° |
| 2026-05-04 19:39 | 44.58107 | 9.79979 | 14963 ft | 325 kts | 329° |
| 2026-05-04 19:40 | 44.60079 | 9.78477 | 14481 ft | 320 kts | 329° |
| 2026-05-04 19:40 | 44.62022 | 9.76996 | 14022 ft | 315 kts | 329° |
| 2026-05-04 19:40 | 44.63922 | 9.75547 | 13650 ft | 307 kts | 329° |
| 2026-05-04 19:40 | 44.65781 | 9.74128 | 13241 ft | 301 kts | 329° |
| 2026-05-04 19:41 | 44.67602 | 9.72738 | 12841 ft | 295 kts | 329° |
| 2026-05-04 19:41 | 44.69389 | 9.71371 | 12445 ft | 290 kts | 329° |
| 2026-05-04 19:41 | 44.71145 | 9.70028 | 12049 ft | 285 kts | 329° |
| 2026-05-04 19:41 | 44.72877 | 9.68703 | 11670 ft | 282 kts | 329° |
| 2026-05-04 19:42 | 44.74593 | 9.67388 | 11303 ft | 281 kts | 330° |
| 2026-05-04 19:42 | 44.76316 | 9.66066 | 10936 ft | 286 kts | 330° |
| 2026-05-04 19:42 | 44.78109 | 9.64688 | 10611 ft | 301 kts | 330° |
| 2026-05-04 19:42 | 44.79979 | 9.63252 | 10263 ft | 311 kts | 330° |
| 2026-05-04 19:43 | 44.81895 | 9.61779 | 9907 ft | 316 kts | 330° |
| 2026-05-04 19:43 | 44.83824 | 9.60298 | 9510 ft | 316 kts | 330° |
| 2026-05-04 19:43 | 44.85753 | 9.58815 | 9124 ft | 316 kts | 330° |
| 2026-05-04 19:43 | 44.87676 | 9.57335 | 8777 ft | 313 kts | 330° |
| 2026-05-04 19:44 | 44.89566 | 9.55880 | 8541 ft | 307 kts | 330° |
| 2026-05-04 19:44 | 44.91432 | 9.54443 | 8286 ft | 304 kts | 330° |
| 2026-05-04 19:44 | 44.93273 | 9.53023 | 8027 ft | 300 kts | 330° |
| 2026-05-04 19:44 | 44.95092 | 9.51619 | 7769 ft | 296 kts | 330° |
| 2026-05-04 19:45 | 44.96890 | 9.50230 | 7525 ft | 293 kts | 330° |
| 2026-05-04 19:45 | 44.98668 | 9.48854 | 7283 ft | 290 kts | 331° |
| 2026-05-04 19:45 | 45.00430 | 9.47492 | 7041 ft | 287 kts | 330° |
| 2026-05-04 19:45 | 45.02133 | 9.46174 | 6734 ft | 280 kts | 330° |
| 2026-05-04 19:46 | 45.03828 | 9.44860 | 6359 ft | 275 kts | 330° |
| 2026-05-04 19:46 | 45.05495 | 9.43568 | 5968 ft | 271 kts | 330° |
| 2026-05-04 19:46 | 45.07131 | 9.42298 | 5589 ft | 266 kts | 330° |
| 2026-05-04 19:46 | 45.08742 | 9.41048 | 5229 ft | 261 kts | 330° |
| 2026-05-04 19:47 | 45.10307 | 9.39832 | 4979 ft | 253 kts | 331° |
| 2026-05-04 19:47 | 45.11824 | 9.38653 | 4725 ft | 245 kts | 331° |
| 2026-05-04 19:47 | 45.13296 | 9.37508 | 4460 ft | 238 kts | 331° |
| 2026-05-04 19:47 | 45.14724 | 9.36397 | 4199 ft | 231 kts | 330° |
| 2026-05-04 19:48 | 45.16115 | 9.35314 | 3943 ft | 225 kts | 330° |
| 2026-05-04 19:48 | 45.17466 | 9.34262 | 3683 ft | 219 kts | 330° |
| 2026-05-04 19:48 | 45.18787 | 9.33233 | 3434 ft | 215 kts | 330° |
| 2026-05-04 19:48 | 45.20091 | 9.32215 | 3276 ft | 211 kts | 329° |
| 2026-05-04 19:49 | 45.21344 | 9.31239 | 3169 ft | 200 kts | 329° |
| 2026-05-04 19:49 | 45.22540 | 9.30320 | 3023 ft | 191 kts | 333° |
| 2026-05-04 19:49 | 45.23798 | 9.29972 | 2989 ft | 179 kts | 355° |
| 2026-05-04 19:49 | 45.25031 | 9.29851 | 3004 ft | 176 kts | 352° |
| 2026-05-04 19:50 | 45.26245 | 9.29695 | 3002 ft | 175 kts | 352° |
| 2026-05-04 19:50 | 45.27455 | 9.29554 | 2991 ft | 175 kts | 352° |
| 2026-05-04 19:50 | 45.28684 | 9.29417 | 2996 ft | 179 kts | 353° |
| 2026-05-04 19:50 | 45.29937 | 9.29282 | 2936 ft | 183 kts | 353° |
| 2026-05-04 19:51 | 45.31212 | 9.29144 | 2746 ft | 183 kts | 353° |
| 2026-05-04 19:51 | 45.32467 | 9.29009 | 2502 ft | 179 kts | 353° |
| 2026-05-04 19:51 | 45.33680 | 9.28878 | 2264 ft | 172 kts | 353° |
| 2026-05-04 19:51 | 45.34841 | 9.28753 | 2046 ft | 166 kts | 353° |
| 2026-05-04 19:52 | 45.35986 | 9.28629 | 1859 ft | 161 kts | 353° |
| 2026-05-04 19:52 | 45.37094 | 9.28508 | 1611 ft | 156 kts | 353° |
| 2026-05-04 19:52 | 45.38140 | 9.28395 | 1394 ft | 147 kts | 354° |
| 2026-05-04 19:52 | 45.39145 | 9.28287 | 1205 ft | 144 kts | 353° |
| 2026-05-04 19:53 | 45.40150 | 9.28178 | 1032 ft | 147 kts | 353° |
| 2026-05-04 19:53 | 45.41186 | 9.28065 | 833 ft | 151 kts | 354° |
| 2026-05-04 19:53 | 45.42229 | 9.27956 | 603 ft | 150 kts | 354° |
| 2026-05-04 19:53 | 45.43256 | 9.27847 | 410 ft | 147 kts | 354° |
| 2026-05-04 19:54 | 45.44206 | 9.27739 | 355 ft | 113 kts | 354° |
| 2026-05-04 19:54 | 45.44776 | 9.27673 | 363 ft | 51 kts | 355° |
| 2026-05-04 19:54 | 45.45113 | 9.27635 | 359 ft | 47 kts | 357° |
| 2026-05-04 19:54 | 45.45380 | 9.27707 | 359 ft | 36 kts | 27° |
| 2026-05-04 19:55 | 45.45510 | 9.27816 | 367 ft | 12 kts | 0° |
| 2026-05-04 19:55 | 45.45591 | 9.27817 | 362 ft | 11 kts | 0° |